sensor_id;sensor_type;location;lat;lon;timestamp;P1;durP1;ratioP1;P2;durP2;ratioP2
51800;SDS011;37855;53.204;6.568;2022-11-18T00:00:03;23.17;;;16.73;;
51800;SDS011;37855;53.204;6.568;2022-11-18T00:02:29;22.25;;;16.38;;
51800;SDS011;37855;53.204;6.568;2022-11-18T00:04:55;22.67;;;17.05;;
51800;SDS011;37855;53.204;6.568;2022-11-18T00:07:20;21.67;;;16.60;;
51800;SDS011;37855;53.204;6.568;2022-11-18T00:09:46;22.38;;;16.08;;
51800;SDS011;37855;53.204;6.568;2022-11-18T00:12:12;19.60;;;15.98;;
51800;SDS011;37855;53.204;6.568;2022-11-18T00:14:56;21.77;;;16.05;;
51800;SDS011;37855;53.204;6.568;2022-11-18T00:17:22;22.63;;;15.88;;
51800;SDS011;37855;53.204;6.568;2022-11-18T00:19:48;18.65;;;15.35;;
51800;SDS011;37855;53.204;6.568;2022-11-18T00:22:15;23.27;;;16.17;;
51800;SDS011;37855;53.204;6.568;2022-11-18T00:24:40;23.08;;;16.85;;
51800;SDS011;37855;53.204;6.568;2022-11-18T00:27:06;20.40;;;16.13;;
51800;SDS011;37855;53.204;6.568;2022-11-18T00:29:44;20.73;;;15.30;;
51800;SDS011;37855;53.204;6.568;2022-11-18T00:32:14;20.40;;;15.43;;
51800;SDS011;37855;53.204;6.568;2022-11-18T00:34:39;21.15;;;14.73;;
51800;SDS011;37855;53.204;6.568;2022-11-18T00:37:16;20.13;;;15.23;;
51800;SDS011;37855;53.204;6.568;2022-11-18T00:40:08;20.80;;;14.98;;
51800;SDS011;37855;53.204;6.568;2022-11-18T00:42:39;19.55;;;15.20;;
51800;SDS011;37855;53.204;6.568;2022-11-18T00:45:18;17.77;;;13.55;;
51800;SDS011;37855;53.204;6.568;2022-11-18T00:47:45;19.05;;;14.90;;
51800;SDS011;37855;53.204;6.568;2022-11-18T00:50:14;19.58;;;14.90;;
51800;SDS011;37855;53.204;6.568;2022-11-18T00:52:41;20.08;;;15.82;;
51800;SDS011;37855;53.204;6.568;2022-11-18T00:55:07;22.13;;;16.17;;
51800;SDS011;37855;53.204;6.568;2022-11-18T00:57:33;22.23;;;16.27;;
51800;SDS011;37855;53.204;6.568;2022-11-18T00:59:59;23.75;;;18.17;;
51800;SDS011;37855;53.204;6.568;2022-11-18T01:02:24;25.15;;;18.05;;
51800;SDS011;37855;53.204;6.568;2022-11-18T01:04:51;27.63;;;18.95;;
51800;SDS011;37855;53.204;6.568;2022-11-18T01:07:17;28.05;;;18.77;;
51800;SDS011;37855;53.204;6.568;2022-11-18T01:09:42;29.45;;;21.30;;
51800;SDS011;37855;53.204;6.568;2022-11-18T01:12:09;30.35;;;20.75;;
51800;SDS011;37855;53.204;6.568;2022-11-18T01:14:54;29.92;;;20.83;;
51800;SDS011;37855;53.204;6.568;2022-11-18T01:17:20;29.45;;;20.65;;
51800;SDS011;37855;53.204;6.568;2022-11-18T01:19:49;30.85;;;20.95;;
51800;SDS011;37855;53.204;6.568;2022-11-18T01:22:24;31.75;;;20.83;;
51800;SDS011;37855;53.204;6.568;2022-11-18T01:24:50;44.88;;;22.98;;
51800;SDS011;37855;53.204;6.568;2022-11-18T01:27:17;42.65;;;23.85;;
51800;SDS011;37855;53.204;6.568;2022-11-18T01:29:42;36.97;;;24.73;;
51800;SDS011;37855;53.204;6.568;2022-11-18T01:32:08;41.53;;;25.85;;
51800;SDS011;37855;53.204;6.568;2022-11-18T01:34:33;39.10;;;24.25;;
51800;SDS011;37855;53.204;6.568;2022-11-18T01:37:08;38.58;;;23.17;;
51800;SDS011;37855;53.204;6.568;2022-11-18T01:39:37;34.65;;;21.17;;
51800;SDS011;37855;53.204;6.568;2022-11-18T01:42:03;32.50;;;21.00;;
51800;SDS011;37855;53.204;6.568;2022-11-18T01:47:40;33.25;;;21.70;;
51800;SDS011;37855;53.204;6.568;2022-11-18T01:50:22;34.60;;;22.15;;
51800;SDS011;37855;53.204;6.568;2022-11-18T01:52:49;34.20;;;21.40;;
51800;SDS011;37855;53.204;6.568;2022-11-18T01:55:17;27.60;;;18.45;;
51800;SDS011;37855;53.204;6.568;2022-11-18T01:57:47;28.05;;;17.70;;
51800;SDS011;37855;53.204;6.568;2022-11-18T02:00:16;31.05;;;20.05;;
51800;SDS011;37855;53.204;6.568;2022-11-18T02:02:45;30.35;;;19.27;;
51800;SDS011;37855;53.204;6.568;2022-11-18T02:05:31;31.77;;;19.00;;
51800;SDS011;37855;53.204;6.568;2022-11-18T02:08:02;28.33;;;18.17;;
51800;SDS011;37855;53.204;6.568;2022-11-18T02:10:32;31.35;;;18.25;;
51800;SDS011;37855;53.204;6.568;2022-11-18T02:13:00;30.30;;;18.88;;
51800;SDS011;37855;53.204;6.568;2022-11-18T02:15:32;28.50;;;18.67;;
51800;SDS011;37855;53.204;6.568;2022-11-18T02:24:09;28.55;;;16.85;;
51800;SDS011;37855;53.204;6.568;2022-11-18T02:30:12;27.13;;;17.33;;
51800;SDS011;37855;53.204;6.568;2022-11-18T02:32:42;27.70;;;17.00;;
51800;SDS011;37855;53.204;6.568;2022-11-18T02:35:41;28.00;;;17.92;;
51800;SDS011;37855;53.204;6.568;2022-11-18T02:38:22;31.35;;;17.30;;
51800;SDS011;37855;53.204;6.568;2022-11-18T02:40:54;29.52;;;18.40;;
51800;SDS011;37855;53.204;6.568;2022-11-18T02:43:26;33.95;;;18.90;;
51800;SDS011;37855;53.204;6.568;2022-11-18T02:46:08;33.30;;;19.13;;
51800;SDS011;37855;53.204;6.568;2022-11-18T02:48:40;30.92;;;19.10;;
51800;SDS011;37855;53.204;6.568;2022-11-18T02:51:25;32.85;;;18.88;;
51800;SDS011;37855;53.204;6.568;2022-11-18T02:54:02;32.92;;;18.33;;
51800;SDS011;37855;53.204;6.568;2022-11-18T02:56:32;32.00;;;19.50;;
51800;SDS011;37855;53.204;6.568;2022-11-18T02:58:58;28.90;;;17.58;;
51800;SDS011;37855;53.204;6.568;2022-11-18T03:01:28;30.35;;;18.42;;
51800;SDS011;37855;53.204;6.568;2022-11-18T03:03:59;29.63;;;17.88;;
51800;SDS011;37855;53.204;6.568;2022-11-18T03:06:35;30.17;;;16.73;;
51800;SDS011;37855;53.204;6.568;2022-11-18T03:09:23;26.23;;;15.68;;
51800;SDS011;37855;53.204;6.568;2022-11-18T03:15:00;30.38;;;17.48;;
51800;SDS011;37855;53.204;6.568;2022-11-18T03:20:26;27.02;;;15.32;;
51800;SDS011;37855;53.204;6.568;2022-11-18T03:22:55;22.80;;;15.63;;
51800;SDS011;37855;53.204;6.568;2022-11-18T03:25:31;24.98;;;15.70;;
51800;SDS011;37855;53.204;6.568;2022-11-18T03:31:29;26.58;;;16.25;;
51800;SDS011;37855;53.204;6.568;2022-11-18T03:35:04;22.00;;;14.43;;
51800;SDS011;37855;53.204;6.568;2022-11-18T03:37:12;21.88;;;14.07;;
51800;SDS011;37855;53.204;6.568;2022-11-18T03:39:41;22.63;;;14.73;;
51800;SDS011;37855;53.204;6.568;2022-11-18T03:42:14;24.80;;;15.30;;
51800;SDS011;37855;53.204;6.568;2022-11-18T03:44:50;20.70;;;13.50;;
51800;SDS011;37855;53.204;6.568;2022-11-18T03:47:27;22.10;;;13.88;;
51800;SDS011;37855;53.204;6.568;2022-11-18T03:49:59;23.77;;;13.43;;
51800;SDS011;37855;53.204;6.568;2022-11-18T03:52:35;19.25;;;13.05;;
51800;SDS011;37855;53.204;6.568;2022-11-18T03:55:08;19.10;;;13.32;;
51800;SDS011;37855;53.204;6.568;2022-11-18T03:57:41;23.27;;;13.43;;
51800;SDS011;37855;53.204;6.568;2022-11-18T04:00:22;20.38;;;13.13;;
51800;SDS011;37855;53.204;6.568;2022-11-18T04:02:57;19.20;;;13.10;;
51800;SDS011;37855;53.204;6.568;2022-11-18T04:05:32;20.42;;;13.88;;
51800;SDS011;37855;53.204;6.568;2022-11-18T04:08:32;20.23;;;13.02;;
51800;SDS011;37855;53.204;6.568;2022-11-18T04:11:05;24.48;;;14.23;;
51800;SDS011;37855;53.204;6.568;2022-11-18T04:14:02;21.90;;;13.88;;
51800;SDS011;37855;53.204;6.568;2022-11-18T04:16:39;19.35;;;12.90;;
51800;SDS011;37855;53.204;6.568;2022-11-18T04:19:08;20.42;;;13.27;;
51800;SDS011;37855;53.204;6.568;2022-11-18T04:21:34;26.58;;;14.35;;
51800;SDS011;37855;53.204;6.568;2022-11-18T04:24:12;23.75;;;13.65;;
51800;SDS011;37855;53.204;6.568;2022-11-18T04:26:41;21.40;;;13.05;;
51800;SDS011;37855;53.204;6.568;2022-11-18T04:29:06;21.52;;;13.35;;
51800;SDS011;37855;53.204;6.568;2022-11-18T04:31:51;19.23;;;12.88;;
51800;SDS011;37855;53.204;6.568;2022-11-18T04:34:24;22.23;;;13.70;;
51800;SDS011;37855;53.204;6.568;2022-11-18T04:36:51;21.30;;;12.95;;
51800;SDS011;37855;53.204;6.568;2022-11-18T04:39:16;20.67;;;12.75;;
51800;SDS011;37855;53.204;6.568;2022-11-18T04:41:43;18.58;;;13.15;;
51800;SDS011;37855;53.204;6.568;2022-11-18T04:44:29;20.77;;;14.00;;
51800;SDS011;37855;53.204;6.568;2022-11-18T04:47:02;22.13;;;13.30;;
51800;SDS011;37855;53.204;6.568;2022-11-18T04:49:33;21.02;;;13.05;;
51800;SDS011;37855;53.204;6.568;2022-11-18T04:52:02;25.42;;;14.07;;
51800;SDS011;37855;53.204;6.568;2022-11-18T04:54:29;22.05;;;14.10;;
51800;SDS011;37855;53.204;6.568;2022-11-18T04:56:59;19.42;;;12.60;;
51800;SDS011;37855;53.204;6.568;2022-11-18T04:59:27;22.95;;;13.32;;
51800;SDS011;37855;53.204;6.568;2022-11-18T05:02:12;21.90;;;13.88;;
51800;SDS011;37855;53.204;6.568;2022-11-18T05:04:37;24.25;;;13.23;;
51800;SDS011;37855;53.204;6.568;2022-11-18T05:07:04;20.63;;;12.70;;
51800;SDS011;37855;53.204;6.568;2022-11-18T05:09:31;20.85;;;12.73;;
51800;SDS011;37855;53.204;6.568;2022-11-18T05:11:57;20.45;;;13.07;;
51800;SDS011;37855;53.204;6.568;2022-11-18T05:14:42;23.40;;;13.45;;
51800;SDS011;37855;53.204;6.568;2022-11-18T05:17:08;20.52;;;12.90;;
51800;SDS011;37855;53.204;6.568;2022-11-18T05:19:35;20.05;;;12.77;;
51800;SDS011;37855;53.204;6.568;2022-11-18T05:22:02;21.73;;;12.98;;
51800;SDS011;37855;53.204;6.568;2022-11-18T05:24:28;22.73;;;13.43;;
51800;SDS011;37855;53.204;6.568;2022-11-18T05:26:54;20.38;;;12.48;;
51800;SDS011;37855;53.204;6.568;2022-11-18T05:29:20;22.80;;;13.13;;
51800;SDS011;37855;53.204;6.568;2022-11-18T05:31:47;21.20;;;13.25;;
51800;SDS011;37855;53.204;6.568;2022-11-18T05:34:17;21.05;;;13.52;;
51800;SDS011;37855;53.204;6.568;2022-11-18T05:36:43;22.63;;;13.77;;
51800;SDS011;37855;53.204;6.568;2022-11-18T05:39:18;21.52;;;12.68;;
51800;SDS011;37855;53.204;6.568;2022-11-18T05:41:47;22.58;;;13.57;;
51800;SDS011;37855;53.204;6.568;2022-11-18T05:44:33;21.52;;;12.95;;
51800;SDS011;37855;53.204;6.568;2022-11-18T05:46:59;22.33;;;13.75;;
51800;SDS011;37855;53.204;6.568;2022-11-18T05:49:24;21.73;;;13.77;;
51800;SDS011;37855;53.204;6.568;2022-11-18T05:51:50;27.02;;;14.18;;
51800;SDS011;37855;53.204;6.568;2022-11-18T05:54:15;20.42;;;12.80;;
51800;SDS011;37855;53.204;6.568;2022-11-18T05:56:43;23.00;;;12.85;;
51800;SDS011;37855;53.204;6.568;2022-11-18T05:59:09;19.08;;;13.10;;
51800;SDS011;37855;53.204;6.568;2022-11-18T06:04:07;25.23;;;14.23;;
51800;SDS011;37855;53.204;6.568;2022-11-18T06:06:38;22.50;;;13.73;;
51800;SDS011;37855;53.204;6.568;2022-11-18T06:09:04;23.58;;;13.55;;
51800;SDS011;37855;53.204;6.568;2022-11-18T06:11:33;26.83;;;14.43;;
51800;SDS011;37855;53.204;6.568;2022-11-18T06:14:08;24.70;;;13.75;;
51800;SDS011;37855;53.204;6.568;2022-11-18T06:16:44;23.05;;;13.45;;
51800;SDS011;37855;53.204;6.568;2022-11-18T06:19:14;27.77;;;14.98;;
51800;SDS011;37855;53.204;6.568;2022-11-18T06:21:41;26.63;;;14.85;;
51800;SDS011;37855;53.204;6.568;2022-11-18T06:24:07;30.13;;;14.90;;
51800;SDS011;37855;53.204;6.568;2022-11-18T06:26:37;25.17;;;14.55;;
51800;SDS011;37855;53.204;6.568;2022-11-18T06:29:04;27.70;;;14.75;;
51800;SDS011;37855;53.204;6.568;2022-11-18T06:31:39;27.00;;;14.40;;
51800;SDS011;37855;53.204;6.568;2022-11-18T06:34:09;27.45;;;15.07;;
51800;SDS011;37855;53.204;6.568;2022-11-18T06:36:35;26.50;;;14.93;;
51800;SDS011;37855;53.204;6.568;2022-11-18T06:39:04;27.63;;;15.48;;
51800;SDS011;37855;53.204;6.568;2022-11-18T06:41:30;30.67;;;15.25;;
51800;SDS011;37855;53.204;6.568;2022-11-18T06:43:56;31.13;;;15.63;;
51800;SDS011;37855;53.204;6.568;2022-11-18T06:46:22;27.45;;;15.48;;
51800;SDS011;37855;53.204;6.568;2022-11-18T06:49:06;26.73;;;15.23;;
51800;SDS011;37855;53.204;6.568;2022-11-18T06:51:31;29.10;;;14.75;;
51800;SDS011;37855;53.204;6.568;2022-11-18T06:54:06;27.08;;;14.93;;
51800;SDS011;37855;53.204;6.568;2022-11-18T06:56:46;27.98;;;15.45;;
51800;SDS011;37855;53.204;6.568;2022-11-18T06:59:15;30.52;;;16.38;;
51800;SDS011;37855;53.204;6.568;2022-11-18T07:01:50;28.42;;;15.38;;
51800;SDS011;37855;53.204;6.568;2022-11-18T07:04:17;25.00;;;14.48;;
51800;SDS011;37855;53.204;6.568;2022-11-18T07:06:42;25.05;;;14.63;;
51800;SDS011;37855;53.204;6.568;2022-11-18T07:09:08;27.02;;;14.55;;
51800;SDS011;37855;53.204;6.568;2022-11-18T07:11:40;30.17;;;15.27;;
51800;SDS011;37855;53.204;6.568;2022-11-18T07:14:17;25.77;;;14.05;;
51800;SDS011;37855;53.204;6.568;2022-11-18T07:16:49;28.65;;;14.50;;
51800;SDS011;37855;53.204;6.568;2022-11-18T07:19:18;28.75;;;14.63;;
51800;SDS011;37855;53.204;6.568;2022-11-18T07:21:46;27.38;;;15.45;;
51800;SDS011;37855;53.204;6.568;2022-11-18T07:24:15;31.30;;;16.67;;
51800;SDS011;37855;53.204;6.568;2022-11-18T07:26:41;33.97;;;15.55;;
51800;SDS011;37855;53.204;6.568;2022-11-18T07:29:07;30.33;;;16.70;;
51800;SDS011;37855;53.204;6.568;2022-11-18T07:31:34;33.15;;;17.45;;
51800;SDS011;37855;53.204;6.568;2022-11-18T07:34:03;37.42;;;17.70;;
51800;SDS011;37855;53.204;6.568;2022-11-18T07:36:28;31.58;;;17.52;;
51800;SDS011;37855;53.204;6.568;2022-11-18T07:38:54;34.67;;;17.75;;
51800;SDS011;37855;53.204;6.568;2022-11-18T07:41:23;37.78;;;19.00;;
51800;SDS011;37855;53.204;6.568;2022-11-18T07:43:53;33.67;;;18.48;;
51800;SDS011;37855;53.204;6.568;2022-11-18T07:46:22;34.00;;;18.20;;
51800;SDS011;37855;53.204;6.568;2022-11-18T07:48:58;34.80;;;18.77;;
51800;SDS011;37855;53.204;6.568;2022-11-18T07:51:47;36.10;;;18.90;;
51800;SDS011;37855;53.204;6.568;2022-11-18T07:54:13;35.15;;;18.95;;
51800;SDS011;37855;53.204;6.568;2022-11-18T07:56:50;33.25;;;18.80;;
51800;SDS011;37855;53.204;6.568;2022-11-18T07:59:15;30.25;;;17.00;;
51800;SDS011;37855;53.204;6.568;2022-11-18T08:01:41;31.85;;;18.00;;
51800;SDS011;37855;53.204;6.568;2022-11-18T08:04:08;33.22;;;17.05;;
51800;SDS011;37855;53.204;6.568;2022-11-18T08:06:35;26.55;;;15.85;;
51800;SDS011;37855;53.204;6.568;2022-11-18T08:09:03;24.70;;;15.38;;
51800;SDS011;37855;53.204;6.568;2022-11-18T08:11:29;30.02;;;16.05;;
51800;SDS011;37855;53.204;6.568;2022-11-18T08:13:55;28.75;;;15.00;;
51800;SDS011;37855;53.204;6.568;2022-11-18T08:16:21;26.23;;;14.77;;
51800;SDS011;37855;53.204;6.568;2022-11-18T08:18:52;29.00;;;15.88;;
51800;SDS011;37855;53.204;6.568;2022-11-18T08:21:19;31.42;;;14.80;;
51800;SDS011;37855;53.204;6.568;2022-11-18T08:23:52;25.40;;;15.18;;
51800;SDS011;37855;53.204;6.568;2022-11-18T08:26:20;27.63;;;15.70;;
51800;SDS011;37855;53.204;6.568;2022-11-18T08:28:50;26.85;;;16.58;;
51800;SDS011;37855;53.204;6.568;2022-11-18T08:31:20;32.08;;;16.73;;
51800;SDS011;37855;53.204;6.568;2022-11-18T08:36:40;27.80;;;16.90;;
51800;SDS011;37855;53.204;6.568;2022-11-18T08:39:07;29.15;;;17.05;;
51800;SDS011;37855;53.204;6.568;2022-11-18T08:41:36;30.60;;;17.65;;
51800;SDS011;37855;53.204;6.568;2022-11-18T08:44:08;27.30;;;17.67;;
51800;SDS011;37855;53.204;6.568;2022-11-18T08:46:39;28.23;;;17.55;;
51800;SDS011;37855;53.204;6.568;2022-11-18T08:49:05;30.85;;;17.55;;
51800;SDS011;37855;53.204;6.568;2022-11-18T08:51:31;29.15;;;17.38;;
51800;SDS011;37855;53.204;6.568;2022-11-18T08:53:58;27.25;;;16.73;;
51800;SDS011;37855;53.204;6.568;2022-11-18T08:56:24;28.88;;;16.52;;
51800;SDS011;37855;53.204;6.568;2022-11-18T08:58:50;27.08;;;15.85;;
51800;SDS011;37855;53.204;6.568;2022-11-18T09:01:16;28.65;;;15.93;;
51800;SDS011;37855;53.204;6.568;2022-11-18T09:03:42;23.58;;;14.95;;
51800;SDS011;37855;53.204;6.568;2022-11-18T09:06:20;21.30;;;13.80;;
51800;SDS011;37855;53.204;6.568;2022-11-18T09:08:48;24.83;;;15.38;;
51800;SDS011;37855;53.204;6.568;2022-11-18T09:11:20;26.85;;;14.73;;
51800;SDS011;37855;53.204;6.568;2022-11-18T09:13:47;24.85;;;15.15;;
51800;SDS011;37855;53.204;6.568;2022-11-18T09:16:18;27.33;;;16.70;;
51800;SDS011;37855;53.204;6.568;2022-11-18T09:18:47;25.83;;;15.38;;
51800;SDS011;37855;53.204;6.568;2022-11-18T09:21:28;23.63;;;15.07;;
51800;SDS011;37855;53.204;6.568;2022-11-18T09:23:54;22.40;;;13.98;;
51800;SDS011;37855;53.204;6.568;2022-11-18T09:26:24;23.67;;;13.38;;
51800;SDS011;37855;53.204;6.568;2022-11-18T09:28:52;25.38;;;14.55;;
51800;SDS011;37855;53.204;6.568;2022-11-18T09:31:18;20.95;;;12.93;;
51800;SDS011;37855;53.204;6.568;2022-11-18T09:33:44;21.27;;;13.40;;
51800;SDS011;37855;53.204;6.568;2022-11-18T09:36:14;22.35;;;13.02;;
51800;SDS011;37855;53.204;6.568;2022-11-18T09:38:47;22.00;;;13.13;;
51800;SDS011;37855;53.204;6.568;2022-11-18T09:48:56;25.02;;;13.25;;
51800;SDS011;37855;53.204;6.568;2022-11-18T09:51:46;20.92;;;13.00;;
51800;SDS011;37855;53.204;6.568;2022-11-18T09:54:21;21.33;;;12.27;;
51800;SDS011;37855;53.204;6.568;2022-11-18T09:56:59;21.08;;;13.55;;
51800;SDS011;37855;53.204;6.568;2022-11-18T09:59:26;23.10;;;13.18;;
51800;SDS011;37855;53.204;6.568;2022-11-18T10:02:18;21.13;;;12.73;;
51800;SDS011;37855;53.204;6.568;2022-11-18T10:05:00;24.05;;;12.35;;
51800;SDS011;37855;53.204;6.568;2022-11-18T10:11:01;22.35;;;13.55;;
51800;SDS011;37855;53.204;6.568;2022-11-18T10:24:29;24.40;;;14.80;;
51800;SDS011;37855;53.204;6.568;2022-11-18T10:26:59;24.63;;;14.90;;
51800;SDS011;37855;53.204;6.568;2022-11-18T10:29:25;23.98;;;14.63;;
51800;SDS011;37855;53.204;6.568;2022-11-18T10:32:07;25.60;;;15.02;;
51800;SDS011;37855;53.204;6.568;2022-11-18T10:34:45;25.33;;;14.85;;
51800;SDS011;37855;53.204;6.568;2022-11-18T10:40:02;24.33;;;14.30;;
51800;SDS011;37855;53.204;6.568;2022-11-18T10:42:34;23.73;;;15.00;;
51800;SDS011;37855;53.204;6.568;2022-11-18T10:48:06;28.48;;;15.13;;
51800;SDS011;37855;53.204;6.568;2022-11-18T10:50:39;27.35;;;15.18;;
51800;SDS011;37855;53.204;6.568;2022-11-18T10:55:58;26.75;;;15.32;;
51800;SDS011;37855;53.204;6.568;2022-11-18T10:58:28;27.48;;;15.93;;
51800;SDS011;37855;53.204;6.568;2022-11-18T11:04:01;30.92;;;17.67;;
51800;SDS011;37855;53.204;6.568;2022-11-18T11:06:41;35.05;;;19.27;;
51800;SDS011;37855;53.204;6.568;2022-11-18T11:09:22;33.47;;;17.98;;
51800;SDS011;37855;53.204;6.568;2022-11-18T11:11:59;33.13;;;17.17;;
51800;SDS011;37855;53.204;6.568;2022-11-18T11:15:02;34.10;;;18.05;;
51800;SDS011;37855;53.204;6.568;2022-11-18T11:20:20;38.40;;;19.88;;
51800;SDS011;37855;53.204;6.568;2022-11-18T11:22:48;34.15;;;18.92;;
51800;SDS011;37855;53.204;6.568;2022-11-18T11:25:15;31.88;;;18.88;;
51800;SDS011;37855;53.204;6.568;2022-11-18T11:28:17;37.80;;;18.70;;
51800;SDS011;37855;53.204;6.568;2022-11-18T11:37:32;32.38;;;18.45;;
51800;SDS011;37855;53.204;6.568;2022-11-18T11:51:51;36.00;;;19.42;;
51800;SDS011;37855;53.204;6.568;2022-11-18T11:57:04;40.53;;;19.75;;
51800;SDS011;37855;53.204;6.568;2022-11-18T12:02:36;36.00;;;18.70;;
51800;SDS011;37855;53.204;6.568;2022-11-18T12:08:45;35.17;;;18.95;;
51800;SDS011;37855;53.204;6.568;2022-11-18T12:11:13;34.70;;;18.00;;
51800;SDS011;37855;53.204;6.568;2022-11-18T12:14:05;35.45;;;18.63;;
51800;SDS011;37855;53.204;6.568;2022-11-18T12:17:00;34.70;;;18.17;;
51800;SDS011;37855;53.204;6.568;2022-11-18T12:19:47;36.67;;;19.00;;
51800;SDS011;37855;53.204;6.568;2022-11-18T12:24:49;30.45;;;17.23;;
51800;SDS011;37855;53.204;6.568;2022-11-18T12:29:55;30.10;;;16.75;;
51800;SDS011;37855;53.204;6.568;2022-11-18T12:37:43;31.00;;;15.73;;
51800;SDS011;37855;53.204;6.568;2022-11-18T12:50:10;26.48;;;14.70;;
51800;SDS011;37855;53.204;6.568;2022-11-18T12:54:57;29.13;;;15.93;;
51800;SDS011;37855;53.204;6.568;2022-11-18T12:57:34;26.00;;;15.40;;
51800;SDS011;37855;53.204;6.568;2022-11-18T13:00:14;25.05;;;14.45;;
51800;SDS011;37855;53.204;6.568;2022-11-18T13:05:49;27.23;;;15.95;;
51800;SDS011;37855;53.204;6.568;2022-11-18T13:08:22;28.08;;;15.77;;
51800;SDS011;37855;53.204;6.568;2022-11-18T13:13:51;29.05;;;17.38;;
51800;SDS011;37855;53.204;6.568;2022-11-18T13:16:49;30.73;;;17.92;;
51800;SDS011;37855;53.204;6.568;2022-11-18T13:19:33;31.10;;;17.35;;
51800;SDS011;37855;53.204;6.568;2022-11-18T13:22:02;26.10;;;15.60;;
51800;SDS011;37855;53.204;6.568;2022-11-18T13:24:58;30.70;;;17.40;;
51800;SDS011;37855;53.204;6.568;2022-11-18T13:27:34;29.08;;;16.92;;
51800;SDS011;37855;53.204;6.568;2022-11-18T13:30:10;32.70;;;18.20;;
51800;SDS011;37855;53.204;6.568;2022-11-18T13:32:44;34.15;;;18.90;;
51800;SDS011;37855;53.204;6.568;2022-11-18T13:35:18;34.50;;;19.52;;
51800;SDS011;37855;53.204;6.568;2022-11-18T13:40:24;36.92;;;19.60;;
51800;SDS011;37855;53.204;6.568;2022-11-18T13:42:54;37.10;;;19.92;;
51800;SDS011;37855;53.204;6.568;2022-11-18T13:45:22;37.08;;;19.05;;
51800;SDS011;37855;53.204;6.568;2022-11-18T13:47:52;35.42;;;19.17;;
51800;SDS011;37855;53.204;6.568;2022-11-18T13:50:40;36.20;;;19.20;;
51800;SDS011;37855;53.204;6.568;2022-11-18T13:58:41;31.63;;;17.77;;
51800;SDS011;37855;53.204;6.568;2022-11-18T14:01:14;30.00;;;16.95;;
51800;SDS011;37855;53.204;6.568;2022-11-18T14:03:51;31.08;;;18.00;;
51800;SDS011;37855;53.204;6.568;2022-11-18T14:06:27;22.85;;;12.30;;
51800;SDS011;37855;53.204;6.568;2022-11-18T14:11:39;29.23;;;16.50;;
51800;SDS011;37855;53.204;6.568;2022-11-18T14:14:07;27.60;;;16.67;;
51800;SDS011;37855;53.204;6.568;2022-11-18T14:16:40;29.45;;;16.27;;
51800;SDS011;37855;53.204;6.568;2022-11-18T14:19:11;28.38;;;16.00;;
51800;SDS011;37855;53.204;6.568;2022-11-18T14:22:02;27.58;;;16.20;;
51800;SDS011;37855;53.204;6.568;2022-11-18T14:24:29;31.55;;;16.30;;
51800;SDS011;37855;53.204;6.568;2022-11-18T14:26:54;33.13;;;17.27;;
51800;SDS011;37855;53.204;6.568;2022-11-18T14:29:20;29.92;;;16.55;;
51800;SDS011;37855;53.204;6.568;2022-11-18T14:34:34;30.70;;;17.20;;
51800;SDS011;37855;53.204;6.568;2022-11-18T14:37:00;28.77;;;16.33;;
51800;SDS011;37855;53.204;6.568;2022-11-18T14:39:28;32.08;;;17.15;;
51800;SDS011;37855;53.204;6.568;2022-11-18T14:41:55;28.42;;;15.90;;
51800;SDS011;37855;53.204;6.568;2022-11-18T14:44:25;28.90;;;16.52;;
51800;SDS011;37855;53.204;6.568;2022-11-18T14:47:02;30.58;;;17.23;;
51800;SDS011;37855;53.204;6.568;2022-11-18T14:49:30;28.70;;;16.40;;
51800;SDS011;37855;53.204;6.568;2022-11-18T14:52:14;30.10;;;16.67;;
51800;SDS011;37855;53.204;6.568;2022-11-18T14:54:43;29.08;;;16.48;;
51800;SDS011;37855;53.204;6.568;2022-11-18T14:57:17;28.23;;;16.45;;
51800;SDS011;37855;53.204;6.568;2022-11-18T14:59:43;30.23;;;17.13;;
51800;SDS011;37855;53.204;6.568;2022-11-18T15:02:24;33.13;;;18.35;;
51800;SDS011;37855;53.204;6.568;2022-11-18T15:04:56;31.27;;;18.33;;
51800;SDS011;37855;53.204;6.568;2022-11-18T15:07:28;35.47;;;19.67;;
51800;SDS011;37855;53.204;6.568;2022-11-18T15:09:54;35.35;;;20.05;;
51800;SDS011;37855;53.204;6.568;2022-11-18T15:12:22;33.15;;;19.58;;
51800;SDS011;37855;53.204;6.568;2022-11-18T15:14:48;33.38;;;20.00;;
51800;SDS011;37855;53.204;6.568;2022-11-18T15:17:29;28.77;;;17.63;;
51800;SDS011;37855;53.204;6.568;2022-11-18T15:19:56;32.47;;;18.35;;
51800;SDS011;37855;53.204;6.568;2022-11-18T15:22:22;31.80;;;18.60;;
51800;SDS011;37855;53.204;6.568;2022-11-18T15:24:48;33.75;;;18.52;;
51800;SDS011;37855;53.204;6.568;2022-11-18T15:27:14;31.27;;;19.13;;
51800;SDS011;37855;53.204;6.568;2022-11-18T15:29:39;30.63;;;18.15;;
51800;SDS011;37855;53.204;6.568;2022-11-18T15:32:05;31.48;;;18.50;;
51800;SDS011;37855;53.204;6.568;2022-11-18T15:34:32;28.33;;;18.17;;
51800;SDS011;37855;53.204;6.568;2022-11-18T15:36:57;31.33;;;18.90;;
51800;SDS011;37855;53.204;6.568;2022-11-18T15:39:23;30.55;;;19.23;;
51800;SDS011;37855;53.204;6.568;2022-11-18T15:42:02;32.17;;;18.60;;
51800;SDS011;37855;53.204;6.568;2022-11-18T15:44:28;31.52;;;19.08;;
51800;SDS011;37855;53.204;6.568;2022-11-18T15:46:54;31.52;;;18.23;;
51800;SDS011;37855;53.204;6.568;2022-11-18T15:49:21;27.77;;;17.70;;
51800;SDS011;37855;53.204;6.568;2022-11-18T15:51:47;28.02;;;17.20;;
51800;SDS011;37855;53.204;6.568;2022-11-18T15:54:13;29.42;;;17.92;;
51800;SDS011;37855;53.204;6.568;2022-11-18T15:56:38;29.00;;;18.08;;
51800;SDS011;37855;53.204;6.568;2022-11-18T15:59:07;31.38;;;19.48;;
51800;SDS011;37855;53.204;6.568;2022-11-18T16:01:39;34.20;;;19.48;;
51800;SDS011;37855;53.204;6.568;2022-11-18T16:04:07;31.55;;;18.20;;
51800;SDS011;37855;53.204;6.568;2022-11-18T16:06:44;30.20;;;18.88;;
51800;SDS011;37855;53.204;6.568;2022-11-18T16:09:10;30.60;;;17.85;;
51800;SDS011;37855;53.204;6.568;2022-11-18T16:11:37;31.45;;;18.45;;
51800;SDS011;37855;53.204;6.568;2022-11-18T16:14:21;29.52;;;17.38;;
51800;SDS011;37855;53.204;6.568;2022-11-18T16:16:48;29.98;;;18.35;;
51800;SDS011;37855;53.204;6.568;2022-11-18T16:19:16;29.33;;;17.23;;
51800;SDS011;37855;53.204;6.568;2022-11-18T16:21:48;32.65;;;18.20;;
51800;SDS011;37855;53.204;6.568;2022-11-18T16:24:19;29.27;;;17.90;;
51800;SDS011;37855;53.204;6.568;2022-11-18T16:26:50;27.27;;;17.45;;
51800;SDS011;37855;53.204;6.568;2022-11-18T16:29:16;29.98;;;18.50;;
51800;SDS011;37855;53.204;6.568;2022-11-18T16:31:42;26.92;;;18.08;;
51800;SDS011;37855;53.204;6.568;2022-11-18T16:34:16;28.60;;;18.23;;
51800;SDS011;37855;53.204;6.568;2022-11-18T16:36:45;27.30;;;18.92;;
51800;SDS011;37855;53.204;6.568;2022-11-18T16:39:17;25.98;;;18.58;;
51800;SDS011;37855;53.204;6.568;2022-11-18T16:41:56;29.98;;;18.50;;
51800;SDS011;37855;53.204;6.568;2022-11-18T16:44:23;30.95;;;19.65;;
51800;SDS011;37855;53.204;6.568;2022-11-18T16:46:54;22.48;;;15.10;;
51800;SDS011;37855;53.204;6.568;2022-11-18T16:49:23;28.25;;;20.08;;
51800;SDS011;37855;53.204;6.568;2022-11-18T16:51:51;28.63;;;20.23;;
51800;SDS011;37855;53.204;6.568;2022-11-18T16:54:24;30.63;;;19.80;;
51800;SDS011;37855;53.204;6.568;2022-11-18T16:56:52;31.33;;;21.02;;
51800;SDS011;37855;53.204;6.568;2022-11-18T16:59:31;29.70;;;20.55;;